Main page
METAR-TAF:

METAR-TAF

Airports :

Chania International Airport

Chania, Crete, Greece

latitude: 35-29N, longitude: 024-07E, elevation: 146 m

Current weather observation

The report was made 37 minutes ago, at 09:50 UTC
Wind 10 kt from the West/Northwest
Temperature 31°C
Humidity 55%
Pressure 1007 hPa
Visibility 10 km or more
no clouds below 1500 m and no cumulonimbus

METAR: LGSA 180950Z 30010KT CAVOK 31/21 Q1007

Time: 13:27 (10:27 UTC)

Forecast

The report was made 5 hours and 27 minutes ago, at 05:00 UTC
Forecast valid from 18 at 06 UTC to 19 at 06 UTC
Wind 18 kt from the West/Northwest with gusts up to 28 kt
Visibility 10 km or more
Few clouds at a height of 3000 ft
Becoming
from 18 at 09 UTC to 18 at 11 UTC
Wind 15 kt from the West/Northwest

TAF: LGSA 180500Z 1806/1906 29018G28KT 9999 FEW030 BECMG 1809/1811 29015KT

Weather observations and forecasts of more than 4000 airports (METAR and TAF reports).

The available stations are represented by yellow and red dots on the map.

Hover mouse over dot to see the name of the station.

Then click to see weather observations and forecasts.

To change the map : click on the green buttons with a black cross to zoom in, on the green button with a dash to zoom out, or on the green arrows for adjacent maps.


METAR-TAF: